createdAt,value
2019-05-07T00:00:59.692Z,99.27
2019-05-07T00:01:59.652Z,99.27
2019-05-07T00:02:59.656Z,99.17
2019-05-07T00:04:01.892Z,99.22
2019-05-07T00:04:59.676Z,99.27
2019-05-07T00:05:59.610Z,99.17
2019-05-07T00:06:59.600Z,99.22
2019-05-07T00:07:59.603Z,99.43
2019-05-07T00:08:59.582Z,99.43
2019-05-07T00:09:59.602Z,99.32
2019-05-07T00:10:59.560Z,99.22
2019-05-07T00:11:59.548Z,99.22
2019-05-07T00:12:59.530Z,99.22
2019-05-07T00:13:59.529Z,99.22
2019-05-07T00:15:02.303Z,99.22
2019-05-07T00:16:02.498Z,99.32
2019-05-07T00:16:59.512Z,99.22
2019-05-07T00:17:59.494Z,99.32
2019-05-07T00:18:59.468Z,99.43
2019-05-07T00:19:59.459Z,99.43
2019-05-07T00:20:59.490Z,99.43
2019-05-07T00:21:59.444Z,99.52
2019-05-07T00:22:59.444Z,99.52
2019-05-07T00:23:59.418Z,99.48
2019-05-07T00:24:59.426Z,99.43
2019-05-07T00:25:59.402Z,99.32
2019-05-07T00:26:59.416Z,99.32
2019-05-07T00:27:59.378Z,99.22
2019-05-07T00:28:59.372Z,99.22
2019-05-07T00:29:59.354Z,99.11
2019-05-07T00:30:59.353Z,99.11
2019-05-07T00:31:59.346Z,99.11
2019-05-07T00:32:59.332Z,99.22
2019-05-07T00:33:59.332Z,99.11
2019-05-07T00:34:59.310Z,99.11
2019-05-07T00:35:59.294Z,99.22
2019-05-07T00:36:59.292Z,99.16
2019-05-07T00:37:59.308Z,99.16
2019-05-07T00:38:59.249Z,99.16
2019-05-07T00:39:59.242Z,99.26
2019-05-07T00:40:59.244Z,99.37
2019-05-07T00:41:59.222Z,99.47
2019-05-07T00:42:59.240Z,99.47
2019-05-07T00:43:59.206Z,99.37
2019-05-07T00:45:13.157Z,99.47
2019-05-07T00:46:02.150Z,99.47
2019-05-07T00:46:59.179Z,99.41
2019-05-07T00:47:59.178Z,99.52
2019-05-07T00:48:59.141Z,99.52
2019-05-07T00:49:59.136Z,99.41
2019-05-07T00:50:59.126Z,99.41
2019-05-07T00:51:59.120Z,99.41
2019-05-07T00:52:59.122Z,99.31
2019-05-07T00:53:59.105Z,99.41
2019-05-07T00:54:59.076Z,99.41
2019-05-07T00:55:59.074Z,99.46
2019-05-07T00:56:59.066Z,99.46
2019-05-07T00:57:59.110Z,99.46
2019-05-07T00:58:59.056Z,99.35
2019-05-07T00:59:59.026Z,99.35
2019-05-07T01:00:59.017Z,99.35
2019-05-07T01:01:59.013Z,99.46
2019-05-07T01:02:58.998Z,99.46
2019-05-07T01:03:59.010Z,99.56
2019-05-07T01:04:58.998Z,99.66
2019-05-07T01:05:58.970Z,99.66
2019-05-07T01:06:58.963Z,99.66
2019-05-07T01:07:58.950Z,99.66
2019-05-07T01:08:58.968Z,99.61
2019-05-07T01:09:58.932Z,99.51
2019-05-07T01:10:58.915Z,99.61
2019-05-07T01:11:58.912Z,99.51
2019-05-07T01:12:59.379Z,99.51
2019-05-07T01:13:58.894Z,99.40
2019-05-07T01:14:58.900Z,99.44
2019-05-07T01:15:58.880Z,99.34
2019-05-07T01:16:58.858Z,99.44
2019-05-07T01:17:58.844Z,99.55
2019-05-07T01:18:58.847Z,99.55
2019-05-07T01:19:58.831Z,99.55
2019-05-07T01:20:58.835Z,99.55
2019-05-07T01:21:58.812Z,99.65
2019-05-07T01:22:58.796Z,99.76
2019-05-07T01:23:58.783Z,99.76
2019-05-07T01:24:58.764Z,99.86
2019-05-07T01:25:58.757Z,99.76
2019-05-07T01:26:58.773Z,99.76
2019-05-07T01:27:58.745Z,99.65
2019-05-07T01:28:58.725Z,99.59
2019-05-07T01:29:58.715Z,99.59
2019-05-07T01:30:58.716Z,99.59
2019-05-07T01:31:58.701Z,99.59
2019-05-07T01:32:58.711Z,99.59
2019-05-07T01:33:58.689Z,99.80
2019-05-07T01:34:58.663Z,99.91
2019-05-07T01:35:58.659Z,99.80
2019-05-07T01:36:58.653Z,99.91
2019-05-07T01:37:58.631Z,99.70
2019-05-07T01:38:58.649Z,99.74
2019-05-07T01:39:58.628Z,99.54
2019-05-07T01:40:58.600Z,99.64
2019-05-07T01:41:58.605Z,99.74
2019-05-07T01:42:58.585Z,99.74
2019-05-07T01:43:58.576Z,99.74
2019-05-07T01:44:58.587Z,99.64
2019-05-07T01:45:58.561Z,99.74
2019-05-07T01:46:58.535Z,99.74
2019-05-07T01:47:58.550Z,99.68
2019-05-07T01:48:58.525Z,99.68
2019-05-07T01:49:58.531Z,99.68
2019-05-07T01:50:58.543Z,99.68
2019-05-07T01:51:58.499Z,99.58
2019-05-07T01:52:58.469Z,99.58
2019-05-07T01:53:58.471Z,99.79
2019-05-07T01:54:58.465Z,99.79
2019-05-07T01:55:58.445Z,99.90
2019-05-07T01:56:58.475Z,99.79
2019-05-07T01:57:58.446Z,99.79
2019-05-07T01:58:58.422Z,99.79
2019-05-07T01:59:58.401Z,99.68
2019-05-07T02:00:58.381Z,99.73
2019-05-07T02:01:58.407Z,99.99
2019-05-07T02:02:58.393Z,99.99
2019-05-07T02:03:58.361Z,99.99
2019-05-07T02:04:58.351Z,99.99
2019-05-07T02:05:58.343Z,99.99
2019-05-07T02:06:58.321Z,99.99
2019-05-07T02:07:58.346Z,99.99
2019-05-07T02:08:58.307Z,99.99
2019-05-07T02:09:58.321Z,99.99
2019-05-07T02:10:58.287Z,99.99
2019-05-07T02:11:58.267Z,99.99
2019-05-07T02:12:58.283Z,99.99
2019-05-07T02:13:58.257Z,99.99
2019-05-07T02:14:58.247Z,99.99
2019-05-07T02:16:01.126Z,99.99
2019-05-07T02:16:59.215Z,99.94
2019-05-07T02:17:58.245Z,99.84
2019-05-07T02:18:58.195Z,99.84
2019-05-07T02:19:58.192Z,99.77
2019-05-07T02:20:58.173Z,99.77
2019-05-07T02:21:58.179Z,99.77
2019-05-07T02:22:58.163Z,99.88
2019-05-07T02:23:58.175Z,99.77
2019-05-07T02:24:58.133Z,99.88
2019-05-07T02:25:58.179Z,99.67
2019-05-07T02:26:58.119Z,99.36
2019-05-07T02:27:58.118Z,99.77
2019-05-07T02:28:58.139Z,99.77
2019-05-07T02:29:58.101Z,99.77
2019-05-07T02:30:58.080Z,99.77
2019-05-07T02:31:58.068Z,99.88
2019-05-07T02:32:58.052Z,99.77
2019-05-07T02:33:58.057Z,99.72
2019-05-07T02:34:58.049Z,99.93
2019-05-07T02:35:58.035Z,99.99
2019-05-07T02:36:58.012Z,99.99
2019-05-07T02:37:58.019Z,99.99
2019-05-07T02:38:58.010Z,99.99
2019-05-07T02:39:58.028Z,99.93
2019-05-07T02:40:57.979Z,99.93
2019-05-07T02:41:57.962Z,99.72
2019-05-07T02:42:57.958Z,99.72
2019-05-07T02:44:00.269Z,99.76
2019-05-07T02:44:58.950Z,99.93
2019-05-07T02:46:15.985Z,99.76
2019-05-07T02:46:58.905Z,99.87
2019-05-07T02:47:57.909Z,99.99
2019-05-07T02:48:57.890Z,99.99
2019-05-07T02:49:57.883Z,99.99
2019-05-07T02:50:57.902Z,99.99
2019-05-07T02:51:57.851Z,99.99
2019-05-07T02:52:57.843Z,99.99
2019-05-07T02:53:57.839Z,99.99
2019-05-07T02:54:57.829Z,99.99
2019-05-07T02:55:57.818Z,99.99
2019-05-07T02:56:57.835Z,99.99
2019-05-07T02:57:57.800Z,99.99
2019-05-07T02:58:57.779Z,99.99
2019-05-07T02:59:57.769Z,99.99
2019-05-07T03:00:57.749Z,99.99
2019-05-07T03:01:57.757Z,99.99
2019-05-07T03:02:57.754Z,99.99
2019-05-07T03:03:57.729Z,99.99
2019-05-07T03:04:57.713Z,99.99
2019-05-07T03:05:57.716Z,99.99
2019-05-07T03:06:57.725Z,99.99
2019-05-07T03:07:57.692Z,99.99
2019-05-07T03:08:57.683Z,99.99
2019-05-07T03:09:57.680Z,99.99
2019-05-07T03:10:57.655Z,99.99
2019-05-07T03:11:57.645Z,99.99
2019-05-07T03:12:57.654Z,99.99
2019-05-07T03:13:57.632Z,99.99
2019-05-07T03:14:57.603Z,99.99
2019-05-07T03:15:57.622Z,99.99
2019-05-07T03:16:57.591Z,99.99
2019-05-07T03:17:57.643Z,99.99
2019-05-07T03:18:57.563Z,99.99
2019-05-07T03:19:57.550Z,99.99
2019-05-07T03:20:57.557Z,99.99
2019-05-07T03:21:57.547Z,99.99
2019-05-07T03:22:57.531Z,99.99
2019-05-07T03:23:57.522Z,99.99
2019-05-07T03:24:57.504Z,99.99
2019-05-07T03:25:57.504Z,99.99
2019-05-07T03:26:57.498Z,99.99
2019-05-07T03:27:57.487Z,99.99
2019-05-07T03:28:57.525Z,99.99
2019-05-07T03:29:57.453Z,99.99
2019-05-07T03:30:57.524Z,99.96
2019-05-07T03:31:57.430Z,99.85
2019-05-07T03:32:57.417Z,99.96
2019-05-07T03:33:57.413Z,99.75
2019-05-07T03:34:58.320Z,99.85
2019-05-07T03:35:57.506Z,99.96
2019-05-07T03:36:57.615Z,99.96
2019-05-07T03:37:57.358Z,99.96
2019-05-07T03:38:57.359Z,99.75
2019-05-07T03:39:57.364Z,99.48
2019-05-07T03:40:57.323Z,99.69
2019-05-07T03:41:57.324Z,99.80
2019-05-07T03:43:01.490Z,99.80
2019-05-07T03:43:58.291Z,99.85
2019-05-07T03:44:57.288Z,99.96
2019-05-07T03:45:57.300Z,99.99
2019-05-07T03:47:02.328Z,99.99
2019-05-07T03:47:58.257Z,99.99
2019-05-07T03:48:57.249Z,99.99
2019-05-07T03:49:57.236Z,99.99
2019-05-07T03:51:06.000Z,99.99
2019-05-07T03:51:57.200Z,99.99
2019-05-07T03:52:57.195Z,99.99
2019-05-07T03:53:57.185Z,99.99
2019-05-07T03:54:57.172Z,99.99
2019-05-07T03:55:57.211Z,99.99
2019-05-07T03:57:02.433Z,99.99
2019-05-07T03:57:58.133Z,99.99
2019-05-07T03:58:57.123Z,99.99
2019-05-07T03:59:57.109Z,99.99
2019-05-07T04:00:57.102Z,99.99
2019-05-07T04:01:57.103Z,99.99
2019-05-07T04:02:57.084Z,99.96
2019-05-07T04:03:57.067Z,99.96
2019-05-07T04:04:57.060Z,99.85
2019-05-07T04:05:57.040Z,99.75
2019-05-07T04:06:57.057Z,99.65
2019-05-07T04:07:57.021Z,99.54
2019-05-07T04:08:57.019Z,99.54
2019-05-07T04:09:57.018Z,99.44
2019-05-07T04:10:56.996Z,99.54
2019-05-07T04:11:57.029Z,99.44
2019-05-07T04:12:57.007Z,99.44
2019-05-07T04:13:56.961Z,99.60
2019-05-07T04:14:56.965Z,99.71
2019-05-07T04:15:56.951Z,99.71
2019-05-07T04:17:13.325Z,99.45
2019-05-07T04:17:57.946Z,99.24
2019-05-07T04:18:56.917Z,99.14
2019-05-07T04:19:56.895Z,98.93
2019-05-07T04:20:56.896Z,98.83
2019-05-07T04:21:56.878Z,98.47
2019-05-07T04:22:56.872Z,98.05
2019-05-07T04:23:56.887Z,97.89
2019-05-07T04:24:56.872Z,97.89
2019-05-07T04:25:56.839Z,97.99
2019-05-07T04:26:56.822Z,98.31
2019-05-07T04:27:56.821Z,98.52
2019-05-07T04:28:56.857Z,98.62
2019-05-07T04:29:56.787Z,98.83
2019-05-07T04:30:56.783Z,99.14
2019-05-07T04:31:56.757Z,99.24
2019-05-07T04:32:56.768Z,99.35
2019-05-07T04:33:56.827Z,99.45
2019-05-07T04:34:56.754Z,99.41
2019-05-07T04:35:56.727Z,99.41
2019-05-07T04:36:56.727Z,99.41
2019-05-07T04:37:56.706Z,99.30
2019-05-07T04:38:56.721Z,99.30
2019-05-07T04:39:56.704Z,99.41
2019-05-07T04:40:56.674Z,99.46
2019-05-07T04:41:56.673Z,99.46
2019-05-07T04:42:56.645Z,99.36
2019-05-07T04:43:56.635Z,99.57
2019-05-07T04:44:56.655Z,99.63
2019-05-07T04:45:56.612Z,99.52
2019-05-07T04:46:56.606Z,99.42
2019-05-07T04:47:56.602Z,99.16
2019-05-07T04:48:56.582Z,99.06
2019-05-07T04:49:56.623Z,98.85
2019-05-07T04:50:56.565Z,98.65
2019-05-07T04:51:56.556Z,98.54
2019-05-07T04:52:56.551Z,98.60
2019-05-07T04:53:56.529Z,98.60
2019-05-07T04:54:56.532Z,98.60
2019-05-07T04:55:56.549Z,98.60
2019-05-07T04:56:56.511Z,98.55
2019-05-07T04:57:56.500Z,98.35
2019-05-07T04:58:56.491Z,98.35
2019-05-07T04:59:56.502Z,98.24
2019-05-07T05:00:56.499Z,97.89
2019-05-07T05:01:56.485Z,97.68
2019-05-07T05:02:56.457Z,97.33
2019-05-07T05:03:56.450Z,96.66
2019-05-07T05:05:04.573Z,95.95
2019-05-07T05:05:56.448Z,94.26
2019-05-07T05:06:56.435Z,91.07
2019-05-07T05:07:56.430Z,88.51
2019-05-07T05:08:56.575Z,87.60
2019-05-07T05:09:56.363Z,85.54
2019-05-07T05:10:56.362Z,85.25
2019-05-07T05:11:56.344Z,83.15
2019-05-07T05:12:56.372Z,81.88
2019-05-07T05:13:56.341Z,81.43
2019-05-07T05:14:56.321Z,80.67
2019-05-07T05:15:56.311Z,78.61
2019-05-07T05:16:56.298Z,78.17
2019-05-07T05:17:56.333Z,77.24
2019-05-07T05:18:56.278Z,77.62
2019-05-07T05:19:56.259Z,76.07
2019-05-07T05:20:56.256Z,78.09
2019-05-07T05:21:56.258Z,77.37
2019-05-07T05:22:56.238Z,76.10
2019-05-07T05:23:56.259Z,75.76
2019-05-07T05:24:56.347Z,73.81
2019-05-07T05:25:56.206Z,73.40
2019-05-07T05:26:56.176Z,73.10
2019-05-07T05:27:56.193Z,75.11
2019-05-07T05:28:56.214Z,73.13
2019-05-07T05:29:56.148Z,73.95
2019-05-07T05:30:56.147Z,74.53
2019-05-07T05:31:56.140Z,70.70
2019-05-07T05:32:56.127Z,69.37
2019-05-07T05:33:56.130Z,71.42
2019-05-07T05:34:56.115Z,71.93
2019-05-07T05:35:56.114Z,71.42
2019-05-07T05:36:56.092Z,70.81
2019-05-07T05:37:56.124Z,70.57
2019-05-07T05:38:56.112Z,71.08
2019-05-07T05:40:05.551Z,71.86
2019-05-07T05:40:57.083Z,70.94
2019-05-07T05:41:56.070Z,69.79
2019-05-07T05:42:56.048Z,68.76
2019-05-07T05:43:56.067Z,69.58
2019-05-07T05:44:56.052Z,66.44
2019-05-07T05:45:56.023Z,68.90
2019-05-07T05:46:56.010Z,67.05
2019-05-07T05:48:04.652Z,68.69
2019-05-07T05:48:57.034Z,68.46
2019-05-07T05:49:55.978Z,67.10
2019-05-07T05:50:55.981Z,67.30
2019-05-07T05:51:55.948Z,68.80
2019-05-07T05:52:55.948Z,66.96
2019-05-07T05:53:55.948Z,66.86
2019-05-07T05:54:55.958Z,67.03
2019-05-07T05:55:55.918Z,68.36
2019-05-07T05:56:55.918Z,66.04
2019-05-07T05:57:55.903Z,63.51
2019-05-07T05:58:55.869Z,67.27
2019-05-07T05:59:55.910Z,67.44
2019-05-07T06:00:55.856Z,65.40
2019-05-07T06:01:55.836Z,66.25
2019-05-07T06:02:55.848Z,66.64
2019-05-07T06:03:55.838Z,71.22
2019-05-07T06:04:55.864Z,71.73
2019-05-07T06:05:55.834Z,72.82
2019-05-07T06:07:07.919Z,72.34
2019-05-07T06:07:56.750Z,71.89
2019-05-07T06:08:55.752Z,73.02
2019-05-07T06:09:55.828Z,73.47
2019-05-07T06:10:55.746Z,73.98
2019-05-07T06:11:55.714Z,68.41
2019-05-07T06:12:55.711Z,67.94
2019-05-07T06:13:55.706Z,66.31
2019-05-07T06:14:55.682Z,65.56
2019-05-07T06:15:55.704Z,67.03
2019-05-07T06:16:55.650Z,65.80
2019-05-07T06:17:55.650Z,65.06
2019-05-07T06:18:55.639Z,64.62
2019-05-07T06:19:55.642Z,65.51
2019-05-07T06:20:55.620Z,64.32
2019-05-07T06:21:55.614Z,61.71
2019-05-07T06:22:55.611Z,61.47
2019-05-07T06:23:55.588Z,59.39
2019-05-07T06:24:56.544Z,61.53
2019-05-07T06:25:55.571Z,63.26
2019-05-07T06:26:55.580Z,63.16
2019-05-07T06:27:55.558Z,63.44
2019-05-07T06:28:55.543Z,63.82
2019-05-07T06:29:55.522Z,63.89
2019-05-07T06:30:55.496Z,62.63
2019-05-07T06:31:55.537Z,60.12
2019-05-07T06:32:55.496Z,61.41
2019-05-07T06:33:55.482Z,59.10
2019-05-07T06:34:55.484Z,58.01
2019-05-07T06:35:55.476Z,58.41
2019-05-07T06:36:55.451Z,59.51
2019-05-07T06:37:55.458Z,61.61
2019-05-07T06:38:55.429Z,58.46
2019-05-07T06:39:55.435Z,59.58
2019-05-07T06:40:55.396Z,59.25
2019-05-07T06:41:55.392Z,59.96
2019-05-07T06:42:55.404Z,58.94
2019-05-07T06:43:55.385Z,59.14
2019-05-07T06:44:55.354Z,57.70
2019-05-07T06:45:55.360Z,58.85
2019-05-07T06:46:55.350Z,58.62
2019-05-07T06:47:55.350Z,58.05
2019-05-07T06:48:55.326Z,58.56
2019-05-07T06:49:55.312Z,58.97
2019-05-07T06:50:55.309Z,59.96
2019-05-07T06:51:55.331Z,58.74
2019-05-07T06:52:55.320Z,58.71
2019-05-07T06:53:55.260Z,59.01
2019-05-07T06:54:55.244Z,57.39
2019-05-07T06:55:55.255Z,57.90
2019-05-07T06:56:55.242Z,55.89
2019-05-07T06:57:55.224Z,57.72
2019-05-07T06:58:55.222Z,59.25
2019-05-07T06:59:55.204Z,61.56
2019-05-07T07:00:55.180Z,58.61
2019-05-07T07:01:55.224Z,57.82
2019-05-07T07:02:55.162Z,59.97
2019-05-07T07:03:55.208Z,65.22
2019-05-07T07:04:55.150Z,65.34
2019-05-07T07:05:55.160Z,65.46
2019-05-07T07:06:55.160Z,67.29
2019-05-07T07:07:55.116Z,64.14
2019-05-07T07:08:55.182Z,62.10
2019-05-07T07:09:56.824Z,64.67
2019-05-07T07:10:55.100Z,65.68
2019-05-07T07:11:55.080Z,68.59
2019-05-07T07:12:55.069Z,72.10
2019-05-07T07:13:55.048Z,73.33
2019-05-07T07:14:57.840Z,69.21
2019-05-07T07:15:55.018Z,62.93
2019-05-07T07:16:56.515Z,61.83
2019-05-07T07:17:55.015Z,64.51
2019-05-07T07:18:55.833Z,67.40
2019-05-07T07:19:54.988Z,71.66
2019-05-07T07:20:54.996Z,69.47
2019-05-07T07:21:55.526Z,73.30
2019-05-07T07:22:54.965Z,72.27
2019-05-07T07:23:54.958Z,72.20
2019-05-07T07:24:54.945Z,68.68
2019-05-07T07:25:54.954Z,69.43
2019-05-07T07:26:54.906Z,72.58
2019-05-07T07:27:54.898Z,70.66
2019-05-07T07:28:54.896Z,66.57
2019-05-07T07:29:54.876Z,63.96
2019-05-07T07:30:54.896Z,60.85
2019-05-07T07:31:54.854Z,59.20
2019-05-07T07:32:54.854Z,57.16
2019-05-07T07:33:54.834Z,58.38
2019-05-07T07:34:54.832Z,57.00
2019-05-07T07:35:54.844Z,55.71
2019-05-07T07:37:05.476Z,56.24
2019-05-07T07:37:55.784Z,56.14
2019-05-07T07:38:54.785Z,54.11
2019-05-07T07:39:54.776Z,54.79
2019-05-07T07:40:54.764Z,54.08
2019-05-07T07:41:54.766Z,56.16
2019-05-07T07:42:54.787Z,55.02
2019-05-07T07:43:54.725Z,58.03
2019-05-07T07:44:54.727Z,62.70
2019-05-07T07:45:54.706Z,66.78
2019-05-07T07:46:54.730Z,68.04
2019-05-07T07:47:54.703Z,68.08
2019-05-07T07:49:06.817Z,65.45
2019-05-07T07:49:55.684Z,66.63
2019-05-07T07:50:54.654Z,67.70
2019-05-07T07:51:54.660Z,64.37
2019-05-07T07:52:54.642Z,58.64
2019-05-07T07:53:54.634Z,61.15
2019-05-07T07:54:54.626Z,60.31
2019-05-07T07:55:54.598Z,62.14
2019-05-07T07:56:56.496Z,59.94
2019-05-07T07:57:54.595Z,59.21
2019-05-07T07:58:54.575Z,60.69
2019-05-07T07:59:54.561Z,56.83
2019-05-07T08:00:54.544Z,57.26
2019-05-07T08:01:54.543Z,56.60
2019-05-07T08:02:54.540Z,54.03
2019-05-07T08:03:54.523Z,56.55
2019-05-07T08:04:54.512Z,56.32
2019-05-07T08:05:54.498Z,54.94
2019-05-07T08:06:54.489Z,58.64
2019-05-07T08:07:54.485Z,60.77
2019-05-07T08:08:54.459Z,58.40
2019-05-07T08:09:54.440Z,63.98
2019-05-07T08:10:54.421Z,60.44
2019-05-07T08:11:54.422Z,58.56
2019-05-07T08:12:54.471Z,56.90
2019-05-07T08:13:54.438Z,54.39
2019-05-07T08:14:54.409Z,57.81
2019-05-07T08:15:54.385Z,61.80
2019-05-07T08:16:54.373Z,62.71
2019-05-07T08:17:54.367Z,64.12
2019-05-07T08:18:54.365Z,63.35
2019-05-07T08:19:54.343Z,60.35
2019-05-07T08:20:54.327Z,61.80
2019-05-07T08:21:54.307Z,60.57
2019-05-07T08:22:54.299Z,58.51
2019-05-07T08:23:54.309Z,54.69
2019-05-07T08:24:54.292Z,55.43
2019-05-07T08:25:54.279Z,52.53
2019-05-07T08:26:54.257Z,51.31
2019-05-07T08:27:54.259Z,50.45
2019-05-07T08:28:54.243Z,52.33
2019-05-07T08:29:54.251Z,52.69
2019-05-07T08:30:54.217Z,49.44
2019-05-07T08:31:54.233Z,52.08
2019-05-07T08:32:54.192Z,49.21
2019-05-07T08:33:54.197Z,49.29
2019-05-07T08:34:54.197Z,49.08
2019-05-07T08:35:54.159Z,50.60
2019-05-07T08:36:54.157Z,46.67
2019-05-07T08:37:54.139Z,48.30
2019-05-07T08:38:54.133Z,49.84
2019-05-07T08:39:54.154Z,49.87
2019-05-07T08:40:54.115Z,49.87
2019-05-07T08:41:54.105Z,49.31
2019-05-07T08:42:54.098Z,45.78
2019-05-07T08:44:07.307Z,50.33
2019-05-07T08:44:55.104Z,48.30
2019-05-07T08:45:54.075Z,47.28
2019-05-07T08:46:54.045Z,46.14
2019-05-07T08:47:54.026Z,47.79
2019-05-07T08:48:54.014Z,45.78
2019-05-07T08:49:54.017Z,47.10
2019-05-07T08:50:54.022Z,45.17
2019-05-07T08:51:53.986Z,45.40
2019-05-07T08:52:53.984Z,43.00
2019-05-07T08:53:53.964Z,43.90
2019-05-07T08:54:53.964Z,44.08
2019-05-07T08:55:53.987Z,48.91
2019-05-07T08:56:53.938Z,45.15
2019-05-07T08:57:53.931Z,43.30
2019-05-07T08:58:53.912Z,46.91
2019-05-07T09:00:00.449Z,46.30
2019-05-07T09:00:54.926Z,44.15
2019-05-07T09:01:53.886Z,43.98
2019-05-07T09:02:53.884Z,46.28
2019-05-07T09:03:53.874Z,41.24
2019-05-07T09:04:53.854Z,42.78
2019-05-07T09:05:53.864Z,43.18
2019-05-07T09:06:53.878Z,43.47
2019-05-07T09:07:53.834Z,44.20
2019-05-07T09:08:53.818Z,43.98
2019-05-07T09:09:53.795Z,40.47
2019-05-07T09:10:53.784Z,42.66
2019-05-07T09:11:53.850Z,42.76
2019-05-07T09:12:53.783Z,46.08
2019-05-07T09:13:53.760Z,44.12
2019-05-07T09:14:53.766Z,42.01
2019-05-07T09:15:53.792Z,43.24
2019-05-07T09:16:53.778Z,41.03
2019-05-07T09:17:53.712Z,41.64
2019-05-07T09:18:53.723Z,41.83
2019-05-07T09:19:54.933Z,43.47
2019-05-07T09:20:53.678Z,45.52
2019-05-07T09:21:53.675Z,47.26
2019-05-07T09:22:53.696Z,49.60
2019-05-07T09:23:53.646Z,49.84
2019-05-07T09:24:53.661Z,49.41
2019-05-07T09:25:53.632Z,46.73
2019-05-07T09:26:53.631Z,44.36
2019-05-07T09:27:53.623Z,47.13
2019-05-07T09:28:53.606Z,41.71
2019-05-07T09:29:53.676Z,44.03
2019-05-07T09:30:53.597Z,46.05
2019-05-07T09:31:53.563Z,41.89
2019-05-07T09:32:53.612Z,45.63
2019-05-07T09:33:53.551Z,43.55
2019-05-07T09:34:53.545Z,44.51
2019-05-07T09:35:53.524Z,40.22
2019-05-07T09:36:53.505Z,39.67
2019-05-07T09:37:53.521Z,41.55
2019-05-07T09:38:59.168Z,42.33
2019-05-07T09:39:54.484Z,42.47
2019-05-07T09:40:55.279Z,40.66
2019-05-07T09:41:53.463Z,43.24
2019-05-07T09:42:53.469Z,43.99
2019-05-07T09:43:53.442Z,47.36
2019-05-07T09:44:53.429Z,48.67
2019-05-07T09:45:53.421Z,46.55
2019-05-07T09:46:53.403Z,44.66
2019-05-07T09:47:53.476Z,42.63
2019-05-07T09:48:53.384Z,43.02
2019-05-07T09:50:04.280Z,44.12
2019-05-07T09:50:54.354Z,41.55
2019-05-07T09:52:02.634Z,41.22
2019-05-07T09:52:53.379Z,40.39
2019-05-07T09:53:53.333Z,43.40
2019-05-07T09:54:53.332Z,44.27
2019-05-07T09:55:53.322Z,41.81
2019-05-07T09:56:53.323Z,39.61
2019-05-07T09:57:53.293Z,44.42
2019-05-07T09:58:53.315Z,45.31
2019-05-07T09:59:53.342Z,46.04
2019-05-07T10:00:53.251Z,42.25
2019-05-07T10:01:53.261Z,42.96
2019-05-07T10:02:53.248Z,49.44
2019-05-07T10:03:53.259Z,44.60
2019-05-07T10:04:53.239Z,43.73
2019-05-07T10:05:53.245Z,43.20
2019-05-07T10:06:53.237Z,42.88
2019-05-07T10:07:53.215Z,46.87
2019-05-07T10:08:53.183Z,42.27
2019-05-07T10:09:53.231Z,44.90
2019-05-07T10:10:53.337Z,43.89
2019-05-07T10:11:53.189Z,42.64
2019-05-07T10:12:53.178Z,48.33
2019-05-07T10:13:53.155Z,40.32
2019-05-07T10:14:53.227Z,38.79
2019-05-07T10:15:53.112Z,43.37
2019-05-07T10:16:53.107Z,46.29
2019-05-07T10:17:53.102Z,39.79
2019-05-07T10:18:53.079Z,42.74
2019-05-07T10:19:53.132Z,45.15
2019-05-07T10:20:53.062Z,49.05
2019-05-07T10:21:53.102Z,48.90
2019-05-07T10:22:53.051Z,48.39
2019-05-07T10:23:53.029Z,50.70
2019-05-07T10:24:53.031Z,46.66
2019-05-07T10:25:53.014Z,50.26
2019-05-07T10:26:53.223Z,49.78
2019-05-07T10:27:53.339Z,49.33
2019-05-07T10:28:52.981Z,47.41
2019-05-07T10:29:53.093Z,45.17
2019-05-07T10:30:53.012Z,42.80
2019-05-07T10:31:52.951Z,41.83
2019-05-07T10:32:52.942Z,42.01
2019-05-07T10:33:52.942Z,43.06
2019-05-07T10:34:52.902Z,45.98
2019-05-07T10:35:53.131Z,43.43
2019-05-07T10:36:52.884Z,46.06
2019-05-07T10:37:53.060Z,46.80
2019-05-07T10:38:52.862Z,50.00
2019-05-07T10:39:52.869Z,46.26
2019-05-07T10:40:52.840Z,47.08
2019-05-07T10:41:52.868Z,45.10
2019-05-07T10:42:52.838Z,40.58
2019-05-07T10:43:52.804Z,37.45
2019-05-07T10:44:52.821Z,42.55
2019-05-07T10:45:52.780Z,40.64
2019-05-07T10:46:52.813Z,43.51
2019-05-07T10:47:52.774Z,39.45
2019-05-07T10:48:52.741Z,39.59
2019-05-07T10:49:52.742Z,39.31
2019-05-07T10:50:52.745Z,41.89
2019-05-07T10:51:52.714Z,40.28
2019-05-07T10:52:52.965Z,38.50
2019-05-07T10:53:52.705Z,41.22
2019-05-07T10:54:59.750Z,47.40
2019-05-07T10:55:53.676Z,40.01
2019-05-07T10:56:52.684Z,42.27
2019-05-07T10:57:52.996Z,35.73
2019-05-07T10:58:52.682Z,39.52
2019-05-07T10:59:52.701Z,39.35
2019-05-07T11:00:52.612Z,40.53
2019-05-07T11:01:52.604Z,45.15
2019-05-07T11:02:52.744Z,46.61
2019-05-07T11:03:52.670Z,48.67
2019-05-07T11:04:53.194Z,49.19
2019-05-07T11:05:52.633Z,45.70
2019-05-07T11:06:52.620Z,45.92
2019-05-07T11:07:53.909Z,48.83
2019-05-07T11:08:52.584Z,45.60
2019-05-07T11:09:52.632Z,45.64
2019-05-07T11:10:52.562Z,45.64
2019-05-07T11:11:52.544Z,46.98
2019-05-07T11:12:52.551Z,49.04
2019-05-07T11:13:55.826Z,48.54
2019-05-07T11:14:52.494Z,47.74
2019-05-07T11:15:52.505Z,49.09
2019-05-07T11:16:52.492Z,52.15
2019-05-07T11:17:52.484Z,48.38
2019-05-07T11:18:52.454Z,51.13
2019-05-07T11:19:52.464Z,50.56
2019-05-07T11:20:53.461Z,49.13
2019-05-07T11:21:52.444Z,49.98
2019-05-07T11:22:52.561Z,50.38
2019-05-07T11:23:52.434Z,50.89
2019-05-07T11:24:52.392Z,52.62
2019-05-07T11:25:52.771Z,51.91
2019-05-07T11:26:53.115Z,51.28
2019-05-07T11:27:52.550Z,50.56
2019-05-07T11:28:52.332Z,51.10
2019-05-07T11:29:52.323Z,51.38
2019-05-07T11:30:52.330Z,52.17
2019-05-07T11:31:52.570Z,53.06
2019-05-07T11:32:52.468Z,49.80
2019-05-07T11:33:52.270Z,48.68
2019-05-07T11:34:52.873Z,48.58
2019-05-07T11:35:52.893Z,48.76
2019-05-07T11:36:52.476Z,49.02
2019-05-07T11:37:52.300Z,48.18
2019-05-07T11:38:52.689Z,47.56
2019-05-07T11:39:52.393Z,49.21
2019-05-07T11:40:52.247Z,49.11
2019-05-07T11:41:52.177Z,46.10
2019-05-07T11:42:52.279Z,46.12
2019-05-07T11:43:54.009Z,46.94
2019-05-07T11:44:54.799Z,45.59
2019-05-07T11:45:54.162Z,42.13
2019-05-07T11:46:52.625Z,43.87
2019-05-07T11:47:52.137Z,44.46
2019-05-07T11:48:52.132Z,47.38
2019-05-07T11:49:52.483Z,42.72
2019-05-07T11:51:01.447Z,44.56
2019-05-07T11:51:53.099Z,43.00
2019-05-07T11:52:52.129Z,41.16
2019-05-07T11:53:52.426Z,39.19
2019-05-07T11:54:52.497Z,39.58
2019-05-07T11:55:52.434Z,37.87
2019-05-07T11:56:55.251Z,40.92
2019-05-07T11:57:52.036Z,38.22
2019-05-07T11:58:54.748Z,36.39
2019-05-07T11:59:54.372Z,42.78
2019-05-07T12:00:51.999Z,39.87
2019-05-07T12:01:52.730Z,40.59
2019-05-07T12:02:52.053Z,41.42
2019-05-07T12:03:52.073Z,42.13
2019-05-07T12:04:52.680Z,42.76
2019-05-07T12:05:52.684Z,46.64
2019-05-07T12:06:52.152Z,41.79
2019-05-07T12:07:51.906Z,40.59
2019-05-07T12:08:52.262Z,39.79
2019-05-07T12:09:52.607Z,40.03
2019-05-07T12:10:51.927Z,43.89
2019-05-07T12:11:52.132Z,43.49
2019-05-07T12:12:52.170Z,44.29
2019-05-07T12:13:52.357Z,43.83
2019-05-07T12:14:51.974Z,42.63
2019-05-07T12:15:52.338Z,44.99
2019-05-07T12:16:51.807Z,45.82
2019-05-07T12:17:52.234Z,46.36
2019-05-07T12:18:52.434Z,43.52
2019-05-07T12:19:52.673Z,44.25
2019-05-07T12:20:53.831Z,43.73
2019-05-07T12:21:52.666Z,40.21
2019-05-07T12:22:52.173Z,43.30
2019-05-07T12:23:52.497Z,43.63
2019-05-07T12:24:52.143Z,43.43
2019-05-07T12:25:52.872Z,44.07
2019-05-07T12:26:52.218Z,41.55
2019-05-07T12:27:51.695Z,38.05
2019-05-07T12:28:52.212Z,36.18
2019-05-07T12:29:52.873Z,38.07
2019-05-07T12:30:51.829Z,34.66
2019-05-07T12:31:52.362Z,36.43
2019-05-07T12:32:52.021Z,36.90
2019-05-07T12:33:52.175Z,40.02
2019-05-07T12:34:52.775Z,40.78
2019-05-07T12:35:52.465Z,38.10
2019-05-07T12:36:52.453Z,38.83
2019-05-07T12:37:51.597Z,36.87
2019-05-07T12:38:53.298Z,35.05
2019-05-07T12:39:52.764Z,38.01
2019-05-07T12:40:52.369Z,39.90
2019-05-07T12:41:52.475Z,40.26
2019-05-07T12:42:52.392Z,35.73
2019-05-07T12:43:51.992Z,36.00
2019-05-07T12:44:51.813Z,38.20
2019-05-07T12:45:52.522Z,35.26
2019-05-07T12:46:52.431Z,37.12
2019-05-07T12:47:52.966Z,37.54
2019-05-07T12:48:52.344Z,36.32
2019-05-07T12:49:51.501Z,35.91
2019-05-07T12:50:52.252Z,35.48
2019-05-07T12:51:51.446Z,35.57
2019-05-07T12:52:52.970Z,35.95